Aviation Digital Data Service (ADDS)

Output produced by TAFs form (2018 UTC 01 October 2014)
found at http://www.aviationweather.gov/adds/tafs/
 
KRIC 012009Z 0120/0218 03005KT P6SM BKN035 
     FM012200 10003KT P6SM SCT080 
     FM020700 VRB02KT 5SM BR SCT025